Time;durP1;ratioP1;P1;durP2;ratioP2;P2;SDS_P1;SDS_P2;PMS_P1;PMS_P2;Temp;Humidity;BMP_temperature;BMP_pressure;BME280_temperature;BME280_humidity;BME280_pressure;Samples;Min_cycle;Max_cycle;Signal;HPM_P1;HPM_P2
2022/12/31 00:01:10;;;;;;;10.07;5.88;;;;;;;4.23;100.00;95672.59;5113424;28;20293;-79
2022/12/31 00:03:38;;;;;;;10.13;5.95;;;;;;;4.21;98.64;95682.78;5127555;27;20740;-80
2022/12/31 00:06:13;;;;;;;7.95;4.30;;;;;;;4.26;97.81;95658.66;5126397;27;20198;-80
2022/12/31 00:08:40;;;;;;;14.77;6.57;;;;;;;4.23;97.36;95669.91;5126995;27;20196;-80
2022/12/31 00:11:08;;;;;;;13.30;5.70;;;;;;;4.33;97.05;95657.63;5113009;28;20254;-80
2022/12/31 00:13:35;;;;;;;16.10;7.18;;;;;;;4.41;96.92;95654.41;5126403;27;20228;-80
2022/12/31 00:16:06;;;;;;;16.00;7.03;;;;;;;4.56;96.70;95662.50;5122762;27;20205;-80
2022/12/31 00:18:33;;;;;;;10.32;6.00;;;;;;;4.59;96.33;95656.63;5119843;27;20238;-79
2022/12/31 00:21:03;;;;;;;11.02;5.93;;;;;;;4.71;95.69;95659.06;5122860;27;20261;-78
2022/12/31 00:23:30;;;;;;;13.23;5.65;;;;;;;4.62;95.85;95661.47;5126733;27;20250;-78
2022/12/31 00:26:01;;;;;;;13.27;6.75;;;;;;;4.67;96.29;95674.88;5124103;27;20231;-79
2022/12/31 00:28:29;;;;;;;9.75;4.95;;;;;;;4.84;96.14;95669.28;5133384;27;20577;-80
2022/12/31 00:30:56;;;;;;;16.55;7.72;;;;;;;4.98;94.86;95665.81;5121655;27;20208;-80
2022/12/31 00:33:23;;;;;;;13.45;6.30;;;;;;;5.00;94.72;95663.69;5112896;28;20205;-79
2022/12/31 00:35:50;;;;;;;13.32;6.30;;;;;;;5.08;94.47;95678.44;5123880;27;20238;-80
2022/12/31 00:38:16;;;;;;;17.95;6.57;;;;;;;5.20;93.70;95680.88;5114476;27;20205;-79
2022/12/31 00:40:43;;;;;;;7.32;4.80;;;;;;;5.18;93.50;95675.00;5124389;27;20225;-80
2022/12/31 00:43:10;;;;;;;14.48;6.90;;;;;;;5.04;93.98;95676.59;5128328;27;20202;-79
2022/12/31 00:45:40;;;;;;;9.45;5.72;;;;;;;5.13;92.89;95688.41;5124099;27;20723;-79
2022/12/31 00:48:07;;;;;;;14.75;6.32;;;;;;;4.93;92.65;95689.16;5118787;27;20254;-79
2022/12/31 00:50:34;;;;;;;11.88;6.97;;;;;;;4.67;94.21;95696.34;5132882;27;20212;-79
2022/12/31 00:53:01;;;;;;;10.30;6.82;;;;;;;4.60;95.09;95687.75;5132362;27;20224;-79
2022/12/31 00:55:27;;;;;;;21.17;6.20;;;;;;;4.68;95.01;95697.97;5119336;27;20197;-79
2022/12/31 00:57:54;;;;;;;17.10;7.65;;;;;;;4.87;95.02;95684.88;5122883;27;20200;-79
2022/12/31 01:00:21;;;;;;;12.25;7.38;;;;;;;5.04;94.66;95690.00;5132156;27;20820;-78
2022/12/31 01:02:51;;;;;;;13.27;6.93;;;;;;;4.92;94.32;95698.31;5118698;27;20283;-80
2022/12/31 01:05:17;;;;;;;16.20;7.75;;;;;;;4.90;94.86;95690.53;5117794;27;20205;-79
2022/12/31 01:07:44;;;;;;;12.88;7.07;;;;;;;4.74;94.61;95702.28;5132337;27;20201;-79
2022/12/31 01:10:11;;;;;;;17.65;7.18;;;;;;;4.58;95.14;95701.44;5132592;27;20205;-79
2022/12/31 01:12:37;;;;;;;10.98;5.15;;;;;;;4.64;95.10;95705.75;5125028;27;20660;-79
2022/12/31 01:15:05;;;;;;;13.98;7.20;;;;;;;4.59;95.14;95700.38;5126269;27;20269;-79
2022/12/31 01:17:32;;;;;;;20.85;8.95;;;;;;;4.62;95.74;95715.13;5124859;27;20784;-80
2022/12/31 01:20:00;;;;;;;15.50;7.72;;;;;;;4.72;95.51;95709.00;5112219;27;20205;-79
2022/12/31 01:22:27;;;;;;;15.25;7.13;;;;;;;4.63;94.79;95708.69;5124065;27;20298;-80
2022/12/31 01:24:53;;;;;;;11.52;5.57;;;;;;;4.51;95.26;95713.50;5125069;27;20302;-79
2022/12/31 01:27:20;;;;;;;27.10;8.45;;;;;;;4.35;96.19;95714.50;5119749;27;20209;-79
2022/12/31 01:29:47;;;;;;;20.70;7.57;;;;;;;4.32;96.52;95720.38;5118550;27;20329;-80
2022/12/31 01:32:14;;;;;;;18.27;9.23;;;;;;;4.27;96.69;95721.94;5123159;27;20209;-79
2022/12/31 01:34:41;;;;;;;16.75;8.38;;;;;;;4.35;97.25;95722.53;5124386;27;20655;-79
2022/12/31 01:37:09;;;;;;;20.23;7.78;;;;;;;4.26;97.38;95717.66;5119959;27;20442;-80
2022/12/31 01:39:35;;;;;;;21.55;9.18;;;;;;;4.14;97.17;95719.72;5117974;27;20205;-79
2022/12/31 01:42:02;;;;;;;15.52;7.53;;;;;;;3.96;97.92;95722.88;5131912;27;20577;-80
2022/12/31 01:44:49;;;;;;;18.67;7.63;;;;;;;4.01;98.26;95727.44;5131917;27;20660;-78
2022/12/31 01:47:21;;;;;;;17.98;7.72;;;;;;;3.97;98.05;95729.81;5131209;27;20189;-78
2022/12/31 01:49:53;;;;;;;12.30;7.93;;;;;;;3.98;98.30;95726.06;5118183;27;20601;-79
2022/12/31 01:52:25;;;;;;;20.30;7.72;;;;;;;4.01;98.75;95736.28;5130567;27;20219;-79
2022/12/31 01:54:56;;;;;;;14.23;8.57;;;;;;;3.93;98.91;95739.47;5111494;28;20273;-79
2022/12/31 01:57:25;;;;;;;13.75;6.85;;;;;;;3.87;98.99;95735.91;5118107;27;20193;-78
2022/12/31 01:59:53;;;;;;;17.38;7.72;;;;;;;3.89;99.24;95749.06;5122241;27;20201;-79
2022/12/31 02:02:20;;;;;;;16.15;8.40;;;;;;;3.78;99.32;95742.03;5131865;27;20284;-79
2022/12/31 02:04:49;;;;;;;11.25;6.78;;;;;;;3.73;99.51;95739.31;5114535;28;20258;-79
2022/12/31 02:07:15;;;;;;;16.83;7.85;;;;;;;3.69;100.00;95738.22;5130173;27;20261;-79
2022/12/31 02:09:44;;;;;;;20.30;8.73;;;;;;;3.69;100.00;95732.88;5122808;27;20198;-79
2022/12/31 02:12:11;;;;;;;15.00;7.68;;;;;;;3.54;100.00;95742.41;5126394;27;20205;-79
2022/12/31 02:14:40;;;;;;;16.23;5.82;;;;;;;3.68;100.00;95747.31;5121883;27;20768;-78
2022/12/31 02:17:13;;;;;;;15.65;6.88;;;;;;;3.76;100.00;95744.16;5116969;27;20201;-78
2022/12/31 02:20:20;;;;;;;11.02;6.18;;;;;;;3.71;100.00;95752.13;5118858;27;20197;-78
2022/12/31 02:23:23;;;;;;;16.33;8.00;;;;;;;3.86;100.00;95749.56;5109392;28;20294;-78
2022/12/31 02:26:19;;;;;;;9.55;6.07;;;;;;;3.54;100.00;95745.06;5113981;27;20771;-79
2022/12/31 02:29:12;;;;;;;12.48;5.97;;;;;;;3.53;100.00;95750.69;5117023;27;20189;-79
2022/12/31 02:31:48;;;;;;;14.75;6.18;;;;;;;3.62;100.00;95759.03;5127313;27;20193;-79
2022/12/31 02:34:21;;;;;;;13.18;5.93;;;;;;;3.70;100.00;95750.53;5121532;27;20230;-79
2022/12/31 02:36:52;;;;;;;11.77;5.70;;;;;;;3.68;100.00;95752.69;5116669;27;20663;-78
2022/12/31 02:39:19;;;;;;;10.02;5.50;;;;;;;3.76;100.00;95749.50;5117265;27;20201;-79
2022/12/31 02:41:51;;;;;;;12.30;4.75;;;;;;;3.68;100.00;95764.22;5123805;27;20634;-79
2022/12/31 02:44:23;;;;;;;13.90;5.63;;;;;;;3.71;100.00;95758.31;5110321;28;20197;-79
2022/12/31 02:47:03;;;;;;;16.13;5.57;;;;;;;3.75;99.91;95758.63;5123011;27;20212;-79
2022/12/31 02:49:36;;;;;;;8.02;4.30;;;;;;;3.78;99.74;95768.81;5126375;27;20185;-79
2022/12/31 02:52:10;;;;;;;11.40;4.88;;;;;;;3.67;99.67;95762.59;5130824;27;20988;-79
2022/12/31 02:54:49;;;;;;;9.90;5.63;;;;;;;3.81;99.91;95769.13;5117239;27;20228;-79
2022/12/31 02:57:24;;;;;;;6.57;4.00;;;;;;;3.72;100.00;95759.94;5125026;27;20188;-79
2022/12/31 03:02:46;;;;;;;10.20;4.30;;;;;;;3.63;99.52;95766.03;5123904;27;20248;-79
2022/12/31 03:05:15;;;;;;;9.75;3.47;;;;;;;3.63;99.02;95755.31;5123571;27;20197;-79
2022/12/31 03:07:43;;;;;;;9.77;5.40;;;;;;;3.64;99.11;95751.56;5117465;27;20254;-79
2022/12/31 03:10:10;;;;;;;10.48;4.65;;;;;;;3.53;98.80;95759.53;5116607;28;20354;-79
2022/12/31 03:12:45;;;;;;;10.00;3.80;;;;;;;3.52;98.71;95760.59;5122430;28;20623;-79
2022/12/31 03:15:19;;;;;;;12.82;5.53;;;;;;;3.46;99.45;95756.25;5123984;28;20211;-79
2022/12/31 03:17:56;;;;;;;9.15;4.43;;;;;;;3.45;99.37;95748.47;5120009;28;20620;-79
2022/12/31 03:23:12;;;;;;;10.57;4.50;;;;;;;3.33;99.96;95745.94;5130056;28;20224;-79
2022/12/31 03:25:38;;;;;;;5.05;3.08;;;;;;;3.32;100.00;95744.31;5122113;27;20381;-79
2022/12/31 03:28:07;;;;;;;6.85;3.90;;;;;;;3.29;100.00;95749.38;5123977;28;20244;-79
2022/12/31 03:30:35;;;;;;;8.98;4.65;;;;;;;3.31;100.00;95745.38;5122432;28;20209;-79
2022/12/31 03:33:04;;;;;;;8.52;3.70;;;;;;;3.25;100.00;95745.63;5123149;28;20541;-79
2022/12/31 03:35:32;;;;;;;9.05;4.28;;;;;;;3.15;100.00;95754.34;5118263;28;20208;-80
2022/12/31 03:38:00;;;;;;;5.80;3.88;;;;;;;3.16;100.00;95748.72;5116553;28;20425;-79
2022/12/31 03:40:28;;;;;;;8.23;4.45;;;;;;;3.03;100.00;95751.81;5129797;28;20242;-79
2022/12/31 03:42:55;;;;;;;9.73;4.47;;;;;;;3.01;100.00;95753.13;5127102;28;20229;-80
2022/12/31 03:45:22;;;;;;;7.07;3.50;;;;;;;3.04;100.00;95753.44;5119418;28;20266;-79
2022/12/31 03:47:49;;;;;;;8.95;4.20;;;;;;;3.16;100.00;95747.91;5116574;28;20763;-78
2022/12/31 03:50:19;;;;;;;7.85;3.88;;;;;;;2.85;100.00;95755.66;5129736;28;20201;-79
2022/12/31 03:52:46;;;;;;;9.50;3.88;;;;;;;2.61;100.00;95754.28;5129630;27;20232;-79
2022/12/31 03:55:13;;;;;;;12.57;4.40;;;;;;;2.53;100.00;95761.97;5118622;28;20259;-79
2022/12/31 03:57:40;;;;;;;7.35;3.70;;;;;;;2.40;100.00;95768.47;5117991;28;20202;-79
2022/12/31 04:00:12;;;;;;;9.80;4.88;;;;;;;2.38;100.00;95765.25;5120326;28;20607;-79
2022/12/31 04:02:39;;;;;;;22.35;8.40;;;;;;;2.56;100.00;95772.16;5124208;28;20218;-78
2022/12/31 04:05:06;;;;;;;7.18;4.40;;;;;;;2.58;100.00;95767.38;5122208;28;20277;-78
2022/12/31 04:07:34;;;;;;;10.45;4.47;;;;;;;2.67;100.00;95766.69;5116010;28;20257;-78
2022/12/31 04:10:02;;;;;;;12.27;4.85;;;;;;;2.69;100.00;95764.56;5116703;28;20675;-79
2022/12/31 04:12:28;;;;;;;12.63;6.10;;;;;;;2.80;100.00;95768.16;5115607;28;20265;-79
2022/12/31 04:14:55;;;;;;;7.20;4.45;;;;;;;2.76;100.00;95767.84;5117229;28;20254;-78
2022/12/31 04:17:22;;;;;;;12.75;4.57;;;;;;;2.77;100.00;95769.47;5127142;27;20202;-78
2022/12/31 04:19:49;;;;;;;9.77;5.85;;;;;;;2.75;100.00;95771.56;5113090;28;20770;-79
2022/12/31 04:22:16;;;;;;;11.68;5.13;;;;;;;2.81;100.00;95783.97;5126571;27;20696;-79
2022/12/31 04:24:44;;;;;;;13.65;4.95;;;;;;;2.56;100.00;95772.97;5126861;27;20706;-80
2022/12/31 04:27:12;;;;;;;8.80;4.70;;;;;;;2.49;100.00;95777.69;5120715;27;20213;-79
2022/12/31 04:29:39;;;;;;;13.15;5.85;;;;;;;2.61;100.00;95778.38;5119389;27;20202;-79
2022/12/31 04:32:06;;;;;;;11.52;4.75;;;;;;;2.65;100.00;95776.81;5125757;27;20757;-79
2022/12/31 04:34:34;;;;;;;9.55;4.35;;;;;;;2.68;100.00;95781.69;5112678;28;20202;-79
2022/12/31 04:37:01;;;;;;;7.43;4.03;;;;;;;2.60;100.00;95787.44;5120405;27;20205;-79
2022/12/31 04:39:28;;;;;;;13.63;3.90;;;;;;;2.58;100.00;95794.13;5118915;27;20250;-78
2022/12/31 04:41:56;;;;;;;6.00;4.22;;;;;;;2.39;100.00;95798.94;5132778;27;20224;-79
2022/12/31 04:44:23;;;;;;;11.25;3.83;;;;;;;2.49;100.00;95797.22;5119336;27;20202;-78
2022/12/31 04:46:49;;;;;;;12.90;4.05;;;;;;;2.54;100.00;95791.13;5124511;27;20208;-78
2022/12/31 04:49:16;;;;;;;6.93;3.58;;;;;;;2.50;100.00;95800.69;5128324;27;20628;-78
2022/12/31 04:51:43;;;;;;;9.10;3.97;;;;;;;2.50;100.00;95806.03;5133002;27;20440;-78
2022/12/31 04:54:10;;;;;;;6.88;3.55;;;;;;;2.66;100.00;95794.50;5118464;27;20250;-78
2022/12/31 04:56:37;;;;;;;11.90;5.22;;;;;;;2.62;100.00;95804.06;5128687;27;20743;-78
2022/12/31 04:59:06;;;;;;;9.32;3.75;;;;;;;2.58;100.00;95810.97;5114215;27;20653;-79
2022/12/31 05:01:33;;;;;;;5.97;3.60;;;;;;;2.47;100.00;95801.19;5133068;27;20952;-78
2022/12/31 05:03:59;;;;;;;10.80;5.25;;;;;;;2.48;100.00;95808.97;5132895;27;20208;-79
2022/12/31 05:06:26;;;;;;;6.40;3.15;;;;;;;2.59;100.00;95809.94;5123629;27;20275;-79
2022/12/31 05:08:53;;;;;;;3.88;3.10;;;;;;;2.50;100.00;95812.19;5115008;27;20594;-80
2022/12/31 05:11:20;;;;;;;7.85;4.28;;;;;;;2.32;100.00;95819.72;5123101;27;20197;-79
2022/12/31 05:13:47;;;;;;;8.52;4.25;;;;;;;2.13;100.00;95833.34;5128699;27;20288;-79
2022/12/31 05:16:15;;;;;;;4.45;2.88;;;;;;;2.28;100.00;95837.28;5133119;27;20250;-78
2022/12/31 05:18:42;;;;;;;9.60;5.22;;;;;;;2.22;100.00;95835.59;5118731;27;20204;-79
2022/12/31 05:21:15;;;;;;;8.63;4.05;;;;;;;2.28;100.00;95845.31;5122034;27;20210;-78
2022/12/31 05:23:41;;;;;;;8.48;4.50;;;;;;;2.40;100.00;95846.03;5129654;27;20691;-79
2022/12/31 05:26:08;;;;;;;8.05;4.88;;;;;;;2.41;100.00;95855.66;5132599;27;20261;-78
2022/12/31 05:28:35;;;;;;;8.20;4.57;;;;;;;2.44;100.00;95852.50;5127723;27;20290;-78
2022/12/31 05:31:02;;;;;;;7.10;4.45;;;;;;;2.38;100.00;95856.16;5123002;27;20598;-79
2022/12/31 05:33:30;;;;;;;10.13;3.63;;;;;;;2.33;100.00;95850.72;5132446;27;20204;-79
2022/12/31 05:35:57;;;;;;;9.05;4.72;;;;;;;2.21;100.00;95852.69;5120311;27;20247;-78
2022/12/31 05:38:24;;;;;;;9.48;3.80;;;;;;;2.27;100.00;95849.03;5125511;27;20288;-79
2022/12/31 05:40:59;;;;;;;25.58;9.90;;;;;;;2.26;100.00;95864.28;5111287;28;20251;-78
2022/12/31 05:43:26;;;;;;;14.35;6.88;;;;;;;2.38;100.00;95848.13;5124574;27;20561;-78
2022/12/31 05:45:52;;;;;;;14.82;6.03;;;;;;;2.30;100.00;95853.91;5111206;28;20194;-79
2022/12/31 05:48:19;;;;;;;12.20;4.97;;;;;;;2.23;100.00;95858.59;5117842;27;20212;-79
2022/12/31 05:50:54;;;;;;;12.35;5.60;;;;;;;2.25;100.00;95851.16;5131380;27;20249;-78
2022/12/31 05:53:23;;;;;;;14.05;5.18;;;;;;;2.23;100.00;95856.72;5122854;27;20228;-78
2022/12/31 05:55:52;;;;;;;18.60;4.72;;;;;;;2.25;100.00;95851.16;5125265;27;20208;-79
2022/12/31 05:58:22;;;;;;;11.43;5.70;;;;;;;2.32;100.00;95862.50;5119952;27;20207;-79
2022/12/31 06:00:51;;;;;;;13.25;4.50;;;;;;;2.42;100.00;95854.63;5124727;27;20217;-79
2022/12/31 06:03:21;;;;;;;7.38;4.82;;;;;;;2.34;100.00;95863.03;5121815;27;20313;-79
2022/12/31 06:05:50;;;;;;;7.35;3.95;;;;;;;2.34;100.00;95866.53;5117599;27;20222;-79
2022/12/31 06:08:19;;;;;;;7.93;4.07;;;;;;;2.40;100.00;95864.75;5120055;27;20652;-78
2022/12/31 06:10:45;;;;;;;8.90;5.05;;;;;;;2.54;100.00;95857.19;5124400;27;20688;-78
2022/12/31 06:13:18;;;;;;;9.02;4.50;;;;;;;2.54;100.00;95867.88;5110486;28;20275;-78
2022/12/31 06:15:50;;;;;;;14.70;4.30;;;;;;;2.61;100.00;95861.28;5130852;27;20648;-78
2022/12/31 06:18:26;;;;;;;6.38;4.07;;;;;;;2.92;100.00;95864.34;5131532;27;20193;-78
2022/12/31 06:20:54;;;;;;;8.40;3.90;;;;;;;3.29;100.00;95862.66;5123333;27;20193;-78
2022/12/31 06:23:29;;;;;;;8.35;4.15;;;;;;;3.47;100.00;95870.34;5124318;27;20240;-78
2022/12/31 06:25:58;;;;;;;6.25;3.78;;;;;;;3.62;99.74;95869.69;5120404;27;20193;-78
2022/12/31 06:28:28;;;;;;;8.27;4.15;;;;;;;3.72;98.67;95877.03;5117253;27;20197;-78
2022/12/31 06:31:00;;;;;;;6.85;3.70;;;;;;;3.80;97.13;95879.25;5120251;27;20202;-78
2022/12/31 06:33:27;;;;;;;6.75;4.18;;;;;;;3.83;97.26;95873.38;5124793;27;20190;-77
2022/12/31 06:35:57;;;;;;;10.60;4.45;;;;;;;3.69;96.58;95877.56;5122619;27;20208;-77
2022/12/31 06:38:26;;;;;;;9.70;5.28;;;;;;;3.49;97.65;95887.00;5116544;27;20587;-78
2022/12/31 06:40:52;;;;;;;7.72;4.55;;;;;;;3.20;99.36;95890.94;5130681;27;20237;-78
2022/12/31 06:43:19;;;;;;;7.10;4.00;;;;;;;3.31;100.00;95903.38;5117254;27;20236;-77
2022/12/31 06:45:46;;;;;;;5.80;4.00;;;;;;;3.38;100.00;95893.31;5131023;27;20221;-77
2022/12/31 06:48:13;;;;;;;11.73;3.92;;;;;;;3.43;100.00;95896.00;5117333;27;20241;-77
2022/12/31 06:50:41;;;;;;;15.60;4.97;;;;;;;3.55;100.00;95899.34;5130324;27;20296;-78
2022/12/31 06:53:09;;;;;;;9.27;4.60;;;;;;;3.64;100.00;95901.59;5123306;27;20934;-78
2022/12/31 06:55:36;;;;;;;8.10;4.20;;;;;;;3.70;98.99;95911.28;5110684;28;20214;-77
2022/12/31 06:58:04;;;;;;;13.63;5.50;;;;;;;3.82;99.01;95909.28;5118631;27;20197;-79
2022/12/31 07:00:31;;;;;;;16.70;6.55;;;;;;;3.97;99.50;95914.78;5124110;27;20205;-77
2022/12/31 07:03:17;;;;;;;15.20;5.10;;;;;;;4.09;98.68;95915.44;5116878;27;20235;-77
2022/12/31 07:05:48;;;;;;;10.95;5.80;;;;;;;4.22;98.45;95920.38;5130315;27;20249;-78
2022/12/31 07:08:28;;;;;;;13.30;5.97;;;;;;;4.23;98.30;95910.47;5118914;27;20635;-78
2022/12/31 07:11:03;;;;;;;14.38;7.75;;;;;;;4.32;98.59;95910.78;5124228;28;20185;-78
2022/12/31 07:13:56;;;;;;;20.90;7.28;;;;;;;4.38;98.65;95917.81;5124186;28;20239;-78
2022/12/31 07:16:36;;;;;;;18.85;7.35;;;;;;;4.65;98.30;95918.53;5111920;28;20202;-79
2022/12/31 07:19:15;;;;;;;13.13;7.35;;;;;;;4.63;97.52;95921.50;5116547;28;20193;-79
2022/12/31 07:21:42;;;;;;;12.23;5.63;;;;;;;4.68;97.83;95923.41;5130627;28;20230;-79
2022/12/31 07:24:12;;;;;;;18.17;7.57;;;;;;;4.77;97.33;95931.78;5122462;28;20225;-78
2022/12/31 07:26:57;;;;;;;15.05;7.88;;;;;;;4.81;96.65;95933.69;5111831;28;20202;-78
2022/12/31 07:29:36;;;;;;;17.33;6.80;;;;;;;4.99;96.45;95933.25;5119685;28;20236;-78
2022/12/31 07:32:18;;;;;;;22.20;9.75;;;;;;;4.90;94.77;95932.16;5110089;28;20253;-78
2022/12/31 07:34:56;;;;;;;17.30;8.85;;;;;;;5.05;94.43;95927.94;5123580;28;20541;-78
2022/12/31 07:37:34;;;;;;;17.98;8.07;;;;;;;5.10;93.65;95930.63;5120306;28;20193;-78
2022/12/31 07:40:08;;;;;;;14.88;6.97;;;;;;;5.23;93.51;95930.16;5116705;28;20193;-78
2022/12/31 07:42:43;;;;;;;14.55;7.15;;;;;;;5.30;92.56;95933.44;5117238;28;20330;-77
2022/12/31 07:45:19;;;;;;;14.98;8.32;;;;;;;5.31;91.82;95935.03;5117790;28;20258;-77
2022/12/31 07:47:46;;;;;;;15.05;8.07;;;;;;;5.34;91.73;95942.56;5116305;28;20193;-77
2022/12/31 07:50:18;;;;;;;15.07;7.25;;;;;;;5.43;91.90;95945.56;5131207;27;20197;-78
2022/12/31 07:52:46;;;;;;;19.08;7.63;;;;;;;5.44;91.17;95948.00;5134236;27;20315;-77
2022/12/31 07:55:14;;;;;;;19.83;8.02;;;;;;;5.61;91.13;95950.47;5134644;27;20197;-78
2022/12/31 07:57:50;;;;;;;20.27;8.13;;;;;;;5.85;90.13;95953.50;5124282;27;20270;-78
2022/12/31 08:00:17;;;;;;;14.27;7.75;;;;;;;5.83;89.52;95944.91;5126351;27;20242;-77
2022/12/31 08:03:01;;;;;;;10.45;6.82;;;;;;;6.05;88.77;95943.63;5119540;27;20281;-78
2022/12/31 08:05:33;;;;;;;14.82;6.95;;;;;;;6.18;88.27;95946.88;5120263;27;20193;-79
2022/12/31 08:08:14;;;;;;;18.50;7.40;;;;;;;6.28;88.07;95936.97;5124512;27;20239;-79
2022/12/31 08:10:58;;;;;;;19.63;9.00;;;;;;;6.43;87.33;95944.19;5132776;27;20600;-78
2022/12/31 08:13:25;;;;;;;22.83;9.18;;;;;;;6.54;86.46;95939.66;5132529;27;20293;-78
2022/12/31 08:15:52;;;;;;;15.93;8.20;;;;;;;6.54;85.91;95942.34;5121422;27;20201;-78
2022/12/31 08:18:22;;;;;;;15.07;7.20;;;;;;;6.78;85.87;95946.09;5118864;27;20258;-78
2022/12/31 08:21:00;;;;;;;16.77;8.43;;;;;;;6.69;85.00;95942.34;5125506;27;20202;-77
2022/12/31 08:23:36;;;;;;;14.15;7.35;;;;;;;6.77;85.19;95944.47;5116220;27;20232;-79
2022/12/31 08:26:23;;;;;;;10.25;5.88;;;;;;;6.82;84.16;95947.19;5121985;27;20197;-78
2022/12/31 08:29:05;;;;;;;18.85;10.75;;;;;;;7.03;84.41;95943.34;5120717;27;20189;-77
2022/12/31 08:31:41;;;;;;;13.15;5.95;;;;;;;7.05;82.73;95940.41;5119821;27;20213;-77
2022/12/31 08:34:16;;;;;;;8.95;4.93;;;;;;;7.00;82.97;95941.19;5122592;27;20292;-79
2022/12/31 08:36:52;;;;;;;9.98;5.10;;;;;;;7.16;83.04;95941.16;5127104;27;20190;-79
2022/12/31 08:39:31;;;;;;;9.80;5.78;;;;;;;7.28;83.01;95950.56;5126928;27;20250;-78
2022/12/31 08:42:03;;;;;;;11.20;6.40;;;;;;;7.34;81.65;95948.69;5122018;27;20189;-78
2022/12/31 08:44:39;;;;;;;10.63;5.55;;;;;;;7.32;81.30;95935.47;5120340;27;20217;-78
2022/12/31 08:47:16;;;;;;;15.00;6.20;;;;;;;7.61;81.15;95938.34;5133168;27;20253;-78
2022/12/31 08:49:44;;;;;;;7.20;4.35;;;;;;;7.74;80.56;95937.72;5113386;27;20198;-79
2022/12/31 08:52:18;;;;;;;10.00;4.97;;;;;;;7.80;80.34;95936.59;5125401;27;20254;-79
2022/12/31 08:54:46;;;;;;;12.57;6.03;;;;;;;7.73;79.60;95930.72;5120244;27;20242;-79
2022/12/31 08:57:23;;;;;;;10.25;5.13;;;;;;;7.71;80.00;95926.69;5127233;27;20206;-78
2022/12/31 08:59:58;;;;;;;10.35;5.53;;;;;;;7.71;80.05;95923.97;5121804;27;20238;-78
2022/12/31 09:02:45;;;;;;;7.20;5.15;;;;;;;7.79;80.01;95924.19;5115573;27;20189;-80
2022/12/31 09:05:19;;;;;;;13.23;5.80;;;;;;;7.94;79.48;95919.81;5112121;28;20254;-79
2022/12/31 09:08:00;;;;;;;9.82;5.57;;;;;;;8.06;78.94;95917.59;5119953;27;20193;-79
2022/12/31 09:10:31;;;;;;;13.20;6.40;;;;;;;8.32;77.93;95927.16;5116003;27;20193;-79
2022/12/31 09:13:09;;;;;;;9.38;5.22;;;;;;;8.40;78.24;95918.47;5111949;28;20275;-79
2022/12/31 09:15:41;;;;;;;7.70;4.78;;;;;;;8.57;76.99;95919.94;5131032;27;20201;-79
2022/12/31 09:18:09;;;;;;;7.88;4.60;;;;;;;8.55;76.18;95923.75;5118387;27;20259;-79
2022/12/31 09:20:36;;;;;;;7.85;4.80;;;;;;;8.57;76.05;95925.34;5125973;27;20201;-78
2022/12/31 09:23:04;;;;;;;11.98;4.88;;;;;;;8.70;75.92;95919.31;5125103;27;20751;-79
2022/12/31 09:25:32;;;;;;;11.10;4.10;;;;;;;8.74;75.41;95917.66;5118627;27;20193;-79
2022/12/31 09:28:11;;;;;;;10.45;4.68;;;;;;;8.87;74.91;95917.00;5132468;27;20217;-79
2022/12/31 09:30:48;;;;;;;8.63;4.75;;;;;;;8.94;75.64;95912.03;5120142;27;20200;-79
2022/12/31 09:33:31;;;;;;;12.57;6.00;;;;;;;9.05;74.85;95905.44;5132589;27;20245;-78
2022/12/31 09:36:01;;;;;;;11.25;5.35;;;;;;;8.92;74.32;95903.41;5120575;27;20190;-77
2022/12/31 09:38:34;;;;;;;10.07;5.10;;;;;;;9.10;74.81;95893.78;5125292;27;20216;-78
2022/12/31 09:41:24;;;;;;;14.88;7.85;;;;;;;8.87;74.82;95889.97;5111817;27;20197;-78
2022/12/31 09:44:29;;;;;;;8.25;4.70;;;;;;;8.92;73.24;95881.78;5121497;27;20217;-77
2022/12/31 09:47:44;;;;;;;9.82;5.32;;;;;;;8.86;73.61;95882.94;5101078;27;20555;-79
2022/12/31 09:50:49;;;;;;;8.85;4.53;;;;;;;9.21;73.24;95863.63;5121312;27;20197;-79
2022/12/31 09:53:43;;;;;;;13.43;6.03;;;;;;;9.33;73.22;95857.81;5110443;27;20299;-78
2022/12/31 09:56:17;;;;;;;12.10;6.45;;;;;;;9.08;73.14;95858.91;5113714;27;20660;-78
2022/12/31 09:58:53;;;;;;;13.82;6.25;;;;;;;9.17;73.11;95859.09;5124445;27;20196;-78
2022/12/31 10:01:35;;;;;;;15.80;8.68;;;;;;;9.19;73.32;95860.41;5124229;27;20270;-78
2022/12/31 10:04:44;;;;;;;16.88;8.93;;;;;;;9.29;73.04;95851.41;5127745;27;20304;-78
2022/12/31 10:07:29;;;;;;;15.10;7.95;;;;;;;9.34;72.93;95845.91;5097146;27;20272;-78
2022/12/31 10:10:05;;;;;;;24.08;13.93;;;;;;;9.46;72.59;95838.16;5131640;27;20200;-78
2022/12/31 10:13:14;;;;;;;14.13;8.52;;;;;;;9.67;71.78;95846.03;5131194;27;20204;-78
2022/12/31 10:16:00;;;;;;;13.40;7.97;;;;;;;9.49;72.04;95842.19;5067690;28;20199;-78
2022/12/31 10:18:39;;;;;;;16.42;8.13;;;;;;;9.52;72.15;95841.63;5120620;27;20205;-78
2022/12/31 10:21:17;;;;;;;21.27;9.50;;;;;;;9.30;73.20;95844.06;5110706;28;20193;-78
2022/12/31 10:24:04;;;;;;;19.70;9.55;;;;;;;9.42;73.19;95837.16;5129146;27;20229;-78
2022/12/31 10:26:43;;;;;;;25.80;10.02;;;;;;;9.55;72.69;95831.03;5118043;27;20250;-78
2022/12/31 10:29:23;;;;;;;17.58;8.80;;;;;;;9.58;73.01;95824.22;5131558;27;20193;-78
2022/12/31 10:32:02;;;;;;;29.92;16.80;;;;;;;9.70;72.62;95824.63;5117616;27;20246;-79
2022/12/31 10:34:47;;;;;;;30.98;17.30;;;;;;;9.80;72.36;95816.34;5117174;27;20717;-78
2022/12/31 10:37:17;;;;;;;15.25;10.05;;;;;;;9.73;71.70;95821.31;5120054;27;20193;-78
2022/12/31 10:39:59;;;;;;;15.57;6.90;;;;;;;9.83;71.82;95815.75;5114549;27;20258;-79
2022/12/31 10:43:13;;;;;;;15.60;7.90;;;;;;;9.91;71.80;95812.38;5122820;27;20189;-78
2022/12/31 10:46:06;;;;;;;19.40;10.20;;;;;;;9.82;71.68;95819.56;5059191;27;20199;-79
2022/12/31 10:49:11;;;;;;;18.58;9.65;;;;;;;9.99;71.81;95810.91;5115832;27;20601;-79
2022/12/31 10:52:19;;;;;;;21.55;10.18;;;;;;;10.02;70.64;95806.81;5066534;27;20312;-78
2022/12/31 10:55:12;;;;;;;23.40;10.18;;;;;;;10.01;70.99;95805.19;5097654;27;20494;-78
2022/12/31 10:57:58;;;;;;;16.70;10.35;;;;;;;10.18;70.80;95805.47;5120687;27;20238;-79
2022/12/31 11:00:30;;;;;;;22.95;10.77;;;;;;;10.35;70.79;95800.34;5117120;28;20198;-78
2022/12/31 11:03:37;;;;;;;21.33;11.63;;;;;;;10.49;70.01;95803.09;5122983;27;20263;-78
2022/12/31 11:06:42;;;;;;;20.35;9.85;;;;;;;10.56;69.80;95807.00;5115078;27;20205;-79
2022/12/31 11:09:44;;;;;;;23.63;11.65;;;;;;;10.52;69.29;95816.81;5116210;28;20712;-78
2022/12/31 11:12:34;;;;;;;17.77;8.75;;;;;;;10.72;68.77;95799.41;5113695;27;20201;-77
2022/12/31 11:15:30;;;;;;;15.32;8.85;;;;;;;10.76;68.77;95800.41;5117086;28;20254;-78
2022/12/31 11:18:05;;;;;;;18.88;10.77;;;;;;;10.78;68.40;95800.94;5119655;28;20201;-79
2022/12/31 11:20:59;;;;;;;21.58;10.45;;;;;;;10.95;68.18;95798.41;5116113;28;20690;-79
2022/12/31 11:23:35;;;;;;;26.25;10.45;;;;;;;11.12;68.34;95792.38;5115713;28;20224;-79
2022/12/31 11:26:13;;;;;;;20.77;10.00;;;;;;;11.23;67.62;95791.06;5121437;27;20247;-79
2022/12/31 11:29:02;;;;;;;23.63;10.85;;;;;;;11.32;66.78;95775.72;5127703;27;20224;-79
2022/12/31 11:31:48;;;;;;;24.88;9.88;;;;;;;11.33;67.04;95782.75;5125906;27;20201;-79
2022/12/31 11:34:30;;;;;;;14.80;9.02;;;;;;;11.44;66.58;95774.38;5126362;27;20192;-79
2022/12/31 11:37:16;;;;;;;20.00;10.52;;;;;;;11.35;66.84;95788.63;5121575;27;20676;-79
2022/12/31 11:39:50;;;;;;;18.08;9.43;;;;;;;11.49;66.61;95779.69;5121144;27;20201;-80
2022/12/31 11:42:24;;;;;;;19.17;9.35;;;;;;;11.53;66.83;95772.53;5122831;27;20194;-79
2022/12/31 11:44:59;;;;;;;27.48;11.60;;;;;;;11.58;66.16;95772.44;5127552;27;20738;-80
2022/12/31 11:47:47;;;;;;;24.20;9.98;;;;;;;11.70;66.18;95770.78;5127947;27;20185;-80
2022/12/31 11:50:28;;;;;;;27.95;15.35;;;;;;;11.86;66.69;95757.69;5113551;27;20197;-80
2022/12/31 11:53:04;;;;;;;26.77;15.45;;;;;;;11.92;66.90;95767.31;5127856;27;20186;-80
2022/12/31 11:55:58;;;;;;;27.17;14.40;;;;;;;11.96;65.46;95759.38;5127332;27;20242;-80
2022/12/31 11:58:27;;;;;;;29.65;16.40;;;;;;;11.81;65.20;95763.25;5122612;27;20251;-80
2022/12/31 12:01:00;;;;;;;29.00;16.48;;;;;;;11.88;64.92;95755.50;5127026;27;20198;-80
2022/12/31 12:03:27;;;;;;;28.50;16.70;;;;;;;11.87;65.09;95756.59;5126567;27;20627;-80
2022/12/31 12:05:56;;;;;;;27.98;16.27;;;;;;;12.05;64.88;95765.66;5120223;27;20706;-80
2022/12/31 12:08:25;;;;;;;25.10;14.82;;;;;;;12.13;65.33;95772.28;5120900;27;20209;-79